ADDS METAR Data INFO
IDs: Format: Raw Decoded Include TAF

Data at: 2104 UTC 19 Jul 2018

KGGW 192053Z AUTO 36006G18KT 10SM SCT070 BKN080 29/09 A2996 RMK AO2 SLP132 T02940094 56005
KGGW 191953Z AUTO 33007G19KT 10SM CLR 30/09 A2996 RMK AO2 SLP131 T03000094
KGGW 191853Z AUTO 35015G24KT 10SM FEW060 30/11 A2997 RMK AO2 SLP132 T03000111
KGGW 191753Z AUTO 35017G22KT 10SM CLR 28/13 A2998 RMK AO2 SLP136 T02830128 10294 20172 51007
KGGW 191653Z AUTO 32016G21KT 10SM FEW048 SCT100 28/14 A2997 RMK AO2 SLP134 T02830139
KGGW 191553Z AUTO 34014KT 10SM CLR 27/14 A2997 RMK AO2 SLP133 T02670139
KGGW 191453Z AUTO 36009KT 10SM CLR 24/16 A2995 RMK AO2 SLP128 T02440156 51016
KGGW 191353Z AUTO 34010KT 10SM CLR 23/16 A2994 RMK AO2 SLP123 T02280161
KGGW 191253Z AUTO 34003KT 10SM CLR 19/13 A2992 RMK AO2 SLP116 T01940133
KGGW 191153Z AUTO 34007KT 10SM CLR 17/13 A2990 RMK AO2 SLP114 T01720128 10228 20172 51017
KGGW 191053Z AUTO 35007KT 10SM CLR 18/13 A2990 RMK AO2 SLP111 T01830128
KGGW 190953Z AUTO 05008KT 10SM CLR 19/13 A2987 RMK AO2 SLP099 T01890128
KGGW 190853Z AUTO 05008KT 10SM CLR 19/13 A2985 RMK AO2 SLP092 T01940128 53006
KGGW 190753Z AUTO 10011KT 10SM CLR 21/14 A2984 RMK AO2 SLP087 T02060139
KGGW 190653Z AUTO 10010KT 10SM CLR 22/13 A2983 RMK AO2 SLP083 T02170133 403440178
KGGW 190553Z AUTO 10013KT 10SM CLR 23/13 A2983 RMK AO2 SLP084 T02280128 10328 20228 50008
KGGW 190453Z AUTO 11009KT 10SM CLR 24/12 A2984 RMK AO2 LTG DSNT SE SLP088 T02390117
KGGW 190403Z AUTO 13012KT 10SM FEW110 26/09 A2983 RMK AO2 LTG DSNT SW T02560094
KGGW 190353Z AUTO 13017G24KT 10SM VCTS FEW110 26/10 A2983 RMK AO2 LTG DSNT SW SLP084 T02560100
KGGW 190336Z AUTO 11012KT 10SM VCTS CLR 26/10 A2984 RMK AO2 T02560100
KGGW 190253Z AUTO 10013KT 10SM CLR 27/11 A2981 RMK AO2 LTG DSNT W SLP078 T02670111 56007
KGGW 190153Z AUTO 12007KT 10SM CLR 32/11 A2981 RMK AO2 SLP077 T03170106
KGGW 190053Z AUTO 13005KT 10SM CLR 33/09 A2982 RMK AO2 SLP080 T03280094
KGGW 182353Z AUTO 17006KT 10SM CLR 31/13 A2983 RMK AO2 SLP087 T03060133 10344 20294 58012
KGGW 182253Z AUTO 16008KT 10SM FEW120 31/12 A2985 RMK AO2 LTG DSNT S SLP094 T03060117
KGGW 182153Z AUTO 14006KT 10SM FEW110 32/11 A2986 RMK AO2 LTG DSNT S AND SW SLP095 T03170111
KGGW 182144Z AUTO 16006KT 10SM CLR 32/11 A2986 RMK AO2 LTG DSNT SW T03170111
KGGW 182124Z AUTO 17010KT 10SM VCTS CLR 32/12 A2986 RMK AO2 LTG DSNT N T03220117
KGGW 182053Z AUTO 20006KT 10SM CLR 33/11 A2987 RMK AO2 LTG DSNT W-N SLP098 T03280106 56012
KGGW 181953Z AUTO 10SM CLR 33/12 A2988 RMK AO2 SLP102 T03280117
KGGW 181853Z AUTO 17007KT 10SM CLR 32/11 A2990 RMK AO2 SLP106 T03220111
KGGW 181753Z AUTO 18010G15KT 10SM CLR 32/11 A2991 RMK AO2 SLP110 T03220111 10322 20189 58007
KGGW 181653Z AUTO 17006KT 10SM CLR 29/14 A2992 RMK AO2 SLP113 T02890139
KGGW 181553Z AUTO 15005KT 10SM CLR 28/13 A2992 RMK AO2 SLP116 T02780128
KGGW 181453Z AUTO VRB03KT 10SM CLR 25/13 A2993 RMK AO2 SLP118 T02500133 53001
KGGW 181353Z AUTO 15006KT 10SM CLR 23/14 A2993 RMK AO2 SLP117 T02280144
KGGW 181253Z AUTO 12006KT 10SM CLR 20/14 A2993 RMK AO2 SLP117 T02000144
KGGW 181153Z AUTO 12007KT 10SM CLR 19/14 A2993 RMK AO2 SLP118 T01890144 10233 20178 56004
KGGW 181053Z AUTO 14007KT 10SM CLR 19/14 A2993 RMK AO2 SLP117 T01890144
KGGW 180953Z AUTO 11007KT 10SM CLR 19/14 A2993 RMK AO2 SLP119 T01890144